Time;durP1;ratioP1;P1;durP2;ratioP2;P2;SDS_P1;SDS_P2;PMS_P1;PMS_P2;Temp;Humidity;BMP_temperature;BMP_pressure;BME280_temperature;BME280_humidity;BME280_pressure;Samples;Min_cycle;Max_cycle;Signal;HPM_P1;HPM_P2
2024/04/05 00:00:16;;;;;;;1.52;0.80;;;11.40;86.10;;;;;;5095381;28;20038;-75
2024/04/05 00:02:46;;;;;;;0.90;0.50;;;11.40;86.00;;;;;;5113378;28;20032;-75
2024/04/05 00:05:12;;;;;;;2.17;0.60;;;11.40;86.00;;;;;;5094774;28;20036;-76
2024/04/05 00:07:39;;;;;;;1.73;0.70;;;11.40;86.10;;;;;;5094805;28;20485;-74
2024/04/05 00:10:06;;;;;;;1.88;0.50;;;11.50;86.20;;;;;;5094920;28;20128;-75
2024/04/05 00:12:31;;;;;;;2.22;0.88;;;11.40;86.20;;;;;;5076451;28;20039;-75
2024/04/05 00:14:57;;;;;;;1.83;0.57;;;11.40;86.20;;;;;;5077538;28;20411;-75
2024/04/05 00:17:23;;;;;;;1.85;0.77;;;11.40;86.10;;;;;;5094986;28;20051;-75
2024/04/05 00:19:49;;;;;;;3.35;0.80;;;11.40;86.00;;;;;;5076299;28;20094;-74
2024/04/05 00:22:14;;;;;;;2.53;0.80;;;11.50;86.00;;;;;;5094510;28;20032;-75
2024/04/05 00:24:40;;;;;;;1.92;0.70;;;11.40;85.80;;;;;;5094827;28;20047;-75
2024/04/05 00:27:06;;;;;;;2.65;1.05;;;11.50;85.90;;;;;;5113333;28;20032;-75
2024/04/05 00:29:32;;;;;;;2.38;0.70;;;11.50;85.90;;;;;;5094696;28;20062;-75
2024/04/05 00:31:57;;;;;;;2.72;0.80;;;11.50;85.90;;;;;;5093802;28;20569;-74
2024/04/05 00:34:23;;;;;;;2.72;0.77;;;11.50;85.90;;;;;;5112579;28;20068;-75
2024/04/05 00:36:49;;;;;;;4.03;0.80;;;11.50;85.90;;;;;;5077970;28;20485;-74
2024/04/05 00:39:15;;;;;;;2.80;0.65;;;11.50;85.90;;;;;;5094516;28;20054;-75
2024/04/05 00:41:41;;;;;;;3.08;0.90;;;11.50;85.90;;;;;;5093459;28;20036;-75
2024/04/05 00:44:07;;;;;;;2.63;0.80;;;11.60;86.50;;;;;;5113108;28;20125;-74
2024/04/05 00:46:34;;;;;;;2.67;0.85;;;11.50;85.80;;;;;;5094207;28;20397;-75
2024/04/05 00:49:00;;;;;;;1.30;0.60;;;11.60;85.90;;;;;;5112339;28;20537;-75
2024/04/05 00:51:27;;;;;;;2.30;0.75;;;11.60;85.90;;;;;;5112799;28;20131;-75
2024/04/05 00:53:53;;;;;;;1.38;0.70;;;11.60;86.00;;;;;;5112236;28;20035;-75
2024/04/05 00:56:21;;;;;;;1.38;0.68;;;11.60;86.00;;;;;;5092628;28;20142;-75
2024/04/05 00:58:47;;;;;;;2.17;0.80;;;11.50;86.10;;;;;;5112192;28;20043;-75
2024/04/05 01:01:12;;;;;;;2.75;0.80;;;11.60;86.20;;;;;;5112466;28;20039;-75
2024/04/05 01:03:39;;;;;;;3.00;0.88;;;11.60;86.20;;;;;;5075580;28;20397;-74
2024/04/05 01:06:05;;;;;;;1.13;0.52;;;11.60;86.30;;;;;;5093781;28;20040;-75
2024/04/05 01:08:31;;;;;;;2.40;0.73;;;11.60;86.30;;;;;;5111982;28;20086;-75
2024/04/05 01:10:57;;;;;;;0.85;0.45;;;11.60;86.40;;;;;;5112340;28;20485;-74
2024/04/05 01:13:22;;;;;;;2.92;0.93;;;11.60;86.40;;;;;;5112462;28;20043;-75
2024/04/05 01:15:48;;;;;;;2.65;0.65;;;11.60;86.40;;;;;;5112241;28;20039;-75
2024/04/05 01:18:15;;;;;;;1.67;0.50;;;11.60;86.50;;;;;;5093949;28;20040;-74
2024/04/05 01:20:43;;;;;;;2.92;0.77;;;11.60;86.50;;;;;;5092530;28;20089;-75
2024/04/05 01:23:12;;;;;;;2.22;0.70;;;11.70;86.60;;;;;;5094134;28;20488;-75
2024/04/05 01:25:38;;;;;;;1.38;0.60;;;11.60;86.60;;;;;;5112072;28;20134;-75
2024/04/05 01:28:11;;;;;;;2.30;0.60;;;11.70;86.60;;;;;;5112194;28;20122;-75
2024/04/05 01:30:37;;;;;;;0.77;0.40;;;11.70;87.20;;;;;;5112169;28;20058;-74
2024/04/05 01:33:03;;;;;;;2.35;0.52;;;11.70;86.60;;;;;;5076446;28;20044;-75
2024/04/05 01:35:29;;;;;;;2.10;0.60;;;11.70;86.60;;;;;;5093621;28;20127;-75
2024/04/05 01:37:56;;;;;;;2.05;0.60;;;11.70;86.70;;;;;;5112434;28;20126;-75
2024/04/05 01:40:22;;;;;;;1.00;0.52;;;11.70;86.70;;;;;;5093480;28;20043;-75
2024/04/05 01:42:48;;;;;;;1.30;0.40;;;11.70;86.70;;;;;;5111961;28;20035;-75
2024/04/05 01:45:15;;;;;;;1.38;0.60;;;11.80;86.80;;;;;;5093610;28;20402;-75
2024/04/05 01:47:42;;;;;;;2.35;0.38;;;11.70;86.80;;;;;;5090118;28;20055;-74
2024/04/05 01:50:09;;;;;;;3.05;0.93;;;11.80;86.90;;;;;;5094263;28;20047;-75
2024/04/05 01:52:34;;;;;;;2.80;0.55;;;11.80;87.00;;;;;;5111947;28;20134;-75
2024/04/05 01:55:01;;;;;;;3.53;0.75;;;11.80;87.00;;;;;;5094035;28;20381;-75
2024/04/05 01:57:27;;;;;;;1.38;0.52;;;11.80;87.00;;;;;;5111862;28;20042;-75
2024/04/05 01:59:54;;;;;;;3.33;0.60;;;11.80;87.00;;;;;;5112212;28;20038;-74
2024/04/05 02:02:21;;;;;;;2.60;0.40;;;11.80;87.00;;;;;;5111711;28;20031;-75
2024/04/05 02:04:52;;;;;;;1.15;0.50;;;11.80;87.10;;;;;;5112122;28;20377;-75
2024/04/05 02:07:20;;;;;;;0.75;0.40;;;11.80;87.20;;;;;;5111672;28;20046;-74
2024/04/05 02:09:47;;;;;;;0.60;0.30;;;11.80;87.30;;;;;;5092025;28;20040;-74
2024/04/05 02:12:13;;;;;;;0.70;0.45;;;11.80;87.40;;;;;;5111790;28;20035;-74
2024/04/05 02:14:39;;;;;;;0.85;0.40;;;11.80;87.40;;;;;;5093139;28;20038;-75
2024/04/05 02:17:04;;;;;;;1.05;0.50;;;11.80;87.40;;;;;;5111764;28;20047;-75
2024/04/05 02:19:30;;;;;;;2.28;0.38;;;11.80;87.50;;;;;;5076298;28;20096;-75
2024/04/05 02:21:56;;;;;;;1.02;0.30;;;11.80;88.20;;;;;;5113269;28;20028;-75
2024/04/05 02:24:21;;;;;;;2.05;0.50;;;11.80;87.60;;;;;;5115283;28;20397;-75
2024/04/05 02:26:47;;;;;;;2.38;0.60;;;11.80;87.70;;;;;;5114705;28;20043;-74
2024/04/05 02:29:13;;;;;;;1.75;0.60;;;11.80;87.70;;;;;;5096648;28;20039;-74
2024/04/05 02:31:39;;;;;;;1.55;0.60;;;11.70;87.70;;;;;;5096746;28;20088;-75
2024/04/05 02:34:05;;;;;;;2.08;0.80;;;11.70;87.70;;;;;;5114772;28;20370;-75
2024/04/05 02:36:31;;;;;;;1.58;0.40;;;11.70;87.80;;;;;;5115211;28;20043;-75
2024/04/05 02:38:56;;;;;;;0.43;0.40;;;11.90;87.90;;;;;;5096405;28;20040;-75
2024/04/05 02:41:22;;;;;;;0.30;0.30;;;11.70;87.80;;;;;;5114869;28;20046;-74
2024/04/05 02:43:48;;;;;;;1.98;0.82;;;11.70;87.90;;;;;;5115106;28;20036;-74
2024/04/05 02:46:16;;;;;;;1.90;0.50;;;11.70;87.90;;;;;;5096861;28;20462;-75
2024/04/05 02:48:41;;;;;;;1.58;0.57;;;11.70;87.90;;;;;;5078820;28;20040;-74
2024/04/05 02:51:08;;;;;;;1.27;0.70;;;11.70;87.90;;;;;;5096237;28;20047;-74
2024/04/05 02:53:33;;;;;;;1.25;0.40;;;11.70;87.90;;;;;;5115086;28;20114;-74
2024/04/05 02:55:59;;;;;;;1.48;0.60;;;11.70;87.90;;;;;;5096612;28;20074;-75
2024/04/05 02:58:25;;;;;;;2.25;0.60;;;11.70;87.90;;;;;;5114179;28;20122;-74
2024/04/05 03:00:55;;;;;;;2.53;0.60;;;11.80;88.00;;;;;;5114174;28;20043;-75
2024/04/05 03:03:21;;;;;;;1.13;0.40;;;11.80;88.00;;;;;;5114481;28;20043;-75
2024/04/05 03:05:47;;;;;;;2.22;0.70;;;11.80;88.00;;;;;;5114247;28;20370;-75
2024/04/05 03:08:13;;;;;;;2.25;0.47;;;11.80;87.90;;;;;;5079390;28;20051;-75
2024/04/05 03:10:39;;;;;;;1.73;0.60;;;11.80;88.00;;;;;;5096257;28;20039;-75
2024/04/05 03:13:05;;;;;;;2.00;0.50;;;11.70;87.90;;;;;;5094124;28;20067;-74
2024/04/05 03:15:30;;;;;;;1.83;0.60;;;11.70;88.00;;;;;;5079090;28;20039;-74
2024/04/05 03:17:56;;;;;;;0.98;0.60;;;11.70;88.10;;;;;;5114212;28;20545;-74
2024/04/05 03:20:22;;;;;;;2.85;0.70;;;11.70;88.10;;;;;;5114099;28;20074;-75
2024/04/05 03:22:48;;;;;;;1.23;0.60;;;11.70;88.20;;;;;;5113864;28;20377;-75
2024/04/05 03:25:14;;;;;;;3.40;0.73;;;11.80;88.20;;;;;;5095788;28;20039;-74
2024/04/05 03:27:40;;;;;;;1.92;0.60;;;11.80;88.10;;;;;;5114445;28;20055;-74
2024/04/05 03:30:06;;;;;;;1.45;0.60;;;11.80;88.00;;;;;;5095894;28;20050;-75
2024/04/05 03:32:32;;;;;;;3.63;0.63;;;11.80;87.90;;;;;;5095038;28;20120;-74
2024/04/05 03:34:57;;;;;;;2.25;0.73;;;11.90;87.90;;;;;;5078757;28;20079;-74
2024/04/05 03:37:23;;;;;;;2.67;0.88;;;11.90;88.00;;;;;;5113742;28;20039;-75
2024/04/05 03:39:52;;;;;;;3.50;1.00;;;11.90;88.00;;;;;;5113909;28;20489;-74
2024/04/05 03:42:19;;;;;;;1.35;0.73;;;11.90;87.90;;;;;;5095549;28;20209;-75
2024/04/05 03:44:46;;;;;;;3.35;1.05;;;12.00;87.90;;;;;;5114007;28;20067;-75
2024/04/05 03:47:13;;;;;;;1.02;0.55;;;12.00;88.10;;;;;;5095694;28;20059;-76
2024/04/05 03:49:39;;;;;;;2.65;0.65;;;12.00;87.80;;;;;;5076563;28;20078;-75
2024/04/05 03:52:06;;;;;;;1.48;0.88;;;12.00;87.90;;;;;;5113538;28;20122;-74
2024/04/05 03:54:32;;;;;;;1.02;0.52;;;12.00;87.90;;;;;;5095025;28;20039;-75
2024/04/05 03:56:58;;;;;;;1.77;0.70;;;12.00;87.90;;;;;;5095209;28;20043;-74
2024/04/05 03:59:26;;;;;;;1.67;0.60;;;11.90;88.00;;;;;;5095162;28;20507;-74
2024/04/05 04:01:52;;;;;;;2.83;0.70;;;12.00;88.10;;;;;;5095651;28;20034;-74
2024/04/05 04:04:18;;;;;;;1.10;0.60;;;12.00;88.10;;;;;;5096037;28;20051;-74
2024/04/05 04:06:44;;;;;;;1.58;0.60;;;12.00;88.20;;;;;;5094092;28;20044;-75
2024/04/05 04:09:11;;;;;;;1.88;0.60;;;12.00;88.20;;;;;;5113383;28;20036;-74
2024/04/05 04:11:37;;;;;;;1.08;0.47;;;12.00;88.20;;;;;;5095131;28;20043;-74
2024/04/05 04:14:03;;;;;;;1.58;0.60;;;12.00;88.30;;;;;;5094922;28;20055;-74
2024/04/05 04:16:30;;;;;;;1.25;0.52;;;12.00;88.40;;;;;;5113377;28;20497;-76
2024/04/05 04:18:55;;;;;;;2.05;0.57;;;12.00;88.40;;;;;;5113170;28;20047;-74
2024/04/05 04:21:24;;;;;;;2.53;0.70;;;12.00;88.50;;;;;;5095498;28;20032;-75
2024/04/05 04:23:50;;;;;;;1.73;0.50;;;12.00;88.60;;;;;;5094184;28;20040;-74
2024/04/05 04:26:16;;;;;;;0.82;0.43;;;12.00;88.70;;;;;;5113281;28;20039;-74
2024/04/05 04:28:42;;;;;;;2.72;0.60;;;12.00;88.70;;;;;;5094929;28;20059;-74
2024/04/05 04:31:17;;;;;;;2.13;0.77;;;11.90;88.80;;;;;;5112816;28;20040;-75
2024/04/05 04:33:43;;;;;;;1.17;0.52;;;12.00;88.90;;;;;;5113667;28;20043;-75
2024/04/05 04:36:09;;;;;;;1.33;0.60;;;12.00;89.00;;;;;;5094708;28;20050;-76
2024/04/05 04:38:35;;;;;;;0.73;0.30;;;11.90;89.00;;;;;;5078394;28;20048;-75
2024/04/05 04:41:01;;;;;;;0.95;0.40;;;11.90;89.10;;;;;;5094660;28;20089;-75
2024/04/05 04:43:27;;;;;;;2.72;0.75;;;11.90;89.20;;;;;;5092538;28;20135;-75
2024/04/05 04:45:53;;;;;;;2.35;0.60;;;11.90;89.20;;;;;;5094617;28;20115;-76
2024/04/05 04:48:19;;;;;;;1.27;0.60;;;11.90;89.40;;;;;;5077613;28;20382;-74
2024/04/05 04:50:45;;;;;;;1.08;0.45;;;11.80;89.50;;;;;;5093005;28;20546;-76
2024/04/05 04:53:10;;;;;;;2.50;0.70;;;11.80;89.60;;;;;;5112989;28;20126;-75
2024/04/05 04:55:36;;;;;;;2.10;0.70;;;11.80;89.70;;;;;;5093804;28;20047;-75
2024/04/05 04:58:02;;;;;;;2.58;0.60;;;11.80;89.70;;;;;;5077626;28;20123;-76
2024/04/05 05:00:27;;;;;;;2.53;0.80;;;11.80;89.80;;;;;;5094759;28;20086;-75
2024/04/05 05:02:53;;;;;;;1.35;0.80;;;11.90;89.90;;;;;;5077060;28;20151;-74
2024/04/05 05:05:19;;;;;;;2.55;0.50;;;11.90;89.90;;;;;;5092974;28;20047;-74
2024/04/05 05:07:45;;;;;;;0.40;0.40;;;11.90;89.90;;;;;;5094503;28;20032;-75
2024/04/05 05:10:10;;;;;;;1.42;0.70;;;11.90;90.00;;;;;;5094335;28;20510;-76
2024/04/05 05:12:37;;;;;;;0.55;0.40;;;11.90;90.00;;;;;;5077487;28;20067;-76
2024/04/05 05:15:03;;;;;;;3.42;0.90;;;11.90;90.00;;;;;;5094314;28;20048;-76
2024/04/05 05:17:29;;;;;;;1.67;0.70;;;11.90;90.00;;;;;;5112761;28;20040;-76
2024/04/05 05:19:54;;;;;;;1.05;0.60;;;11.90;90.00;;;;;;5093587;28;20050;-76
2024/04/05 05:22:20;;;;;;;0.70;0.47;;;11.90;90.00;;;;;;5113216;28;20028;-76
2024/04/05 05:24:47;;;;;;;1.00;0.50;;;11.90;90.10;;;;;;5094081;28;20074;-76
2024/04/05 05:27:12;;;;;;;1.25;0.60;;;11.90;90.10;;;;;;5094220;28;20393;-76
2024/04/05 05:29:38;;;;;;;1.40;0.60;;;12.00;90.10;;;;;;5112163;28;20044;-76
2024/04/05 05:32:04;;;;;;;1.80;0.63;;;12.00;90.10;;;;;;5112312;28;20043;-76
2024/04/05 05:34:30;;;;;;;1.63;0.60;;;12.00;90.10;;;;;;5094413;28;20075;-76
2024/04/05 05:36:55;;;;;;;1.30;0.50;;;11.90;90.10;;;;;;5076426;28;20097;-76
2024/04/05 05:39:21;;;;;;;0.50;0.50;;;12.00;90.10;;;;;;5112172;28;20083;-76
2024/04/05 05:41:47;;;;;;;1.48;0.40;;;12.10;90.20;;;;;;5077149;28;20032;-76
2024/04/05 05:44:13;;;;;;;1.83;0.60;;;12.10;90.20;;;;;;5094249;28;20044;-76
2024/04/05 05:46:39;;;;;;;1.75;0.70;;;12.10;90.20;;;;;;5112685;28;20036;-76
2024/04/05 05:49:04;;;;;;;1.40;0.60;;;12.10;90.20;;;;;;5094642;28;20036;-76
2024/04/05 05:51:30;;;;;;;1.73;0.70;;;12.20;90.20;;;;;;5112437;28;20127;-76
2024/04/05 05:53:55;;;;;;;0.80;0.50;;;12.20;90.20;;;;;;5094092;28;20055;-76
2024/04/05 05:56:21;;;;;;;1.23;0.47;;;12.20;90.20;;;;;;5077852;28;20047;-75
2024/04/05 05:58:47;;;;;;;1.40;0.57;;;12.20;90.10;;;;;;5097398;28;20042;-76
2024/04/05 06:01:14;;;;;;;0.60;0.50;;;12.30;90.20;;;;;;5115638;28;20040;-76
2024/04/05 06:03:39;;;;;;;0.70;0.40;;;12.30;90.20;;;;;;5095873;28;20028;-76
2024/04/05 06:06:06;;;;;;;2.63;0.70;;;12.30;90.20;;;;;;5080521;28;20035;-75
2024/04/05 06:08:32;;;;;;;1.55;0.50;;;12.40;90.20;;;;;;5097225;28;20126;-75
2024/04/05 06:10:58;;;;;;;0.60;0.40;;;12.40;90.20;;;;;;5097155;28;20437;-75
2024/04/05 06:13:24;;;;;;;0.75;0.50;;;12.40;90.20;;;;;;5115755;28;20070;-74
2024/04/05 06:15:55;;;;;;;0.55;0.40;;;12.50;90.30;;;;;;5115243;28;20123;-75
2024/04/05 06:18:21;;;;;;;2.20;0.50;;;12.50;90.30;;;;;;5096648;28;20047;-74
2024/04/05 06:20:55;;;;;;;1.00;0.60;;;12.60;90.20;;;;;;5115308;28;20042;-74
2024/04/05 06:23:22;;;;;;;1.70;0.60;;;12.70;90.20;;;;;;5115061;28;20035;-74
2024/04/05 06:25:56;;;;;;;0.52;0.50;;;12.80;90.10;;;;;;5097610;28;20032;-75
2024/04/05 06:28:22;;;;;;;2.03;0.50;;;12.80;90.10;;;;;;5115564;28;20469;-74
2024/04/05 06:30:49;;;;;;;1.23;0.60;;;12.80;90.10;;;;;;5114905;28;20081;-74
2024/04/05 06:33:15;;;;;;;1.60;0.47;;;12.90;90.10;;;;;;5114809;28;20046;-74
2024/04/05 06:35:41;;;;;;;0.88;0.50;;;13.00;90.10;;;;;;5096921;28;20181;-74
2024/04/05 06:38:08;;;;;;;1.30;0.50;;;13.00;90.10;;;;;;5096566;28;20480;-74
2024/04/05 06:40:34;;;;;;;2.70;0.73;;;13.10;90.10;;;;;;5097030;28;20075;-74
2024/04/05 06:43:01;;;;;;;1.92;0.50;;;13.10;90.10;;;;;;5095406;28;20047;-73
2024/04/05 06:45:27;;;;;;;1.05;0.50;;;13.10;90.10;;;;;;5115259;28;20035;-74
2024/04/05 06:47:53;;;;;;;0.80;0.43;;;13.20;90.10;;;;;;5114760;28;20036;-73
2024/04/05 06:50:19;;;;;;;0.68;0.40;;;13.10;90.10;;;;;;5114974;28;20081;-74
2024/04/05 06:52:45;;;;;;;2.83;0.60;;;13.20;90.10;;;;;;5096673;28;20524;-75
2024/04/05 06:55:11;;;;;;;1.83;0.60;;;13.20;90.10;;;;;;5078190;28;20078;-76
2024/04/05 06:57:38;;;;;;;1.08;0.55;;;13.30;90.20;;;;;;5114996;28;20040;-75
2024/04/05 07:00:06;;;;;;;0.63;0.45;;;13.20;90.20;;;;;;5097606;28;20036;-76
2024/04/05 07:02:32;;;;;;;1.08;0.43;;;13.20;90.20;;;;;;5098000;28;20040;-77
2024/04/05 07:04:58;;;;;;;0.55;0.40;;;13.30;90.20;;;;;;5081533;28;20046;-77
2024/04/05 07:07:24;;;;;;;1.40;0.40;;;13.40;90.20;;;;;;5068425;28;20130;-77
2024/04/05 07:09:50;;;;;;;1.20;0.43;;;13.40;90.20;;;;;;5085557;28;20043;-77
2024/04/05 07:12:16;;;;;;;1.25;0.40;;;13.50;90.20;;;;;;5100509;28;20036;-76
2024/04/05 07:14:41;;;;;;;0.93;0.47;;;13.50;90.20;;;;;;5061657;28;20496;-75
2024/04/05 07:17:08;;;;;;;0.70;0.50;;;13.60;90.20;;;;;;5096476;28;20126;-76
2024/04/05 07:19:33;;;;;;;0.47;0.45;;;13.60;90.20;;;;;;5096553;28;20050;-76
2024/04/05 07:21:59;;;;;;;0.70;0.50;;;13.60;90.20;;;;;;5098057;28;20031;-75
2024/04/05 07:24:25;;;;;;;1.67;0.68;;;13.60;90.10;;;;;;5115505;28;20035;-75
2024/04/05 07:26:50;;;;;;;0.40;0.40;;;13.70;90.20;;;;;;5114760;28;20032;-75
2024/04/05 07:29:16;;;;;;;0.40;0.30;;;13.60;90.20;;;;;;5080266;28;20469;-75
2024/04/05 07:31:42;;;;;;;1.02;0.43;;;13.70;90.20;;;;;;5097142;28;20047;-75
2024/04/05 07:34:07;;;;;;;0.40;0.40;;;13.70;90.20;;;;;;5114443;28;20046;-74
2024/04/05 07:36:33;;;;;;;1.50;0.35;;;13.70;90.30;;;;;;5077628;28;20477;-75
2024/04/05 07:38:59;;;;;;;0.50;0.30;;;13.70;90.30;;;;;;5095993;28;20040;-74
2024/04/05 07:41:25;;;;;;;0.52;0.40;;;13.80;90.30;;;;;;5062425;28;20103;-76
2024/04/05 07:43:51;;;;;;;1.13;0.68;;;13.80;90.30;;;;;;5078767;28;20067;-76
2024/04/05 07:46:17;;;;;;;1.17;0.57;;;13.80;90.30;;;;;;5098743;28;20036;-76
2024/04/05 07:48:43;;;;;;;1.35;0.63;;;13.80;90.30;;;;;;5100982;28;20042;-76
2024/04/05 07:51:10;;;;;;;1.13;0.50;;;13.80;90.30;;;;;;5117050;28;20035;-75
2024/04/05 07:53:36;;;;;;;0.57;0.50;;;13.80;90.30;;;;;;5114837;28;20067;-77
2024/04/05 07:56:03;;;;;;;1.05;0.60;;;13.80;90.30;;;;;;5098696;28;20492;-75
2024/04/05 07:58:29;;;;;;;0.80;0.60;;;13.90;90.30;;;;;;5114335;28;20046;-75
2024/04/05 08:00:56;;;;;;;0.98;0.47;;;13.90;90.30;;;;;;5114396;28;20043;-78
2024/04/05 08:03:22;;;;;;;0.80;0.47;;;13.90;90.30;;;;;;5078479;28;20067;-78
2024/04/05 08:05:48;;;;;;;0.85;0.52;;;14.00;90.30;;;;;;5078766;28;20120;-79
2024/04/05 08:08:13;;;;;;;1.45;0.50;;;14.00;90.30;;;;;;5116857;28;20173;-77
2024/04/05 08:10:39;;;;;;;0.75;0.40;;;14.10;90.30;;;;;;5096897;28;20393;-78
2024/04/05 08:13:05;;;;;;;1.20;0.50;;;14.10;90.20;;;;;;5098579;28;20044;-76
2024/04/05 08:15:31;;;;;;;1.73;0.50;;;14.10;90.30;;;;;;5078252;28;20044;-76
2024/04/05 08:17:58;;;;;;;0.63;0.50;;;14.10;90.20;;;;;;5077951;28;20081;-74
2024/04/05 08:20:24;;;;;;;1.52;0.60;;;14.10;90.20;;;;;;5093305;28;20482;-76
2024/04/05 08:22:50;;;;;;;1.33;0.40;;;14.10;90.20;;;;;;5095054;28;20050;-75
2024/04/05 08:25:16;;;;;;;0.50;0.47;;;14.10;90.30;;;;;;5094758;28;20068;-75
2024/04/05 08:27:45;;;;;;;1.13;0.60;;;14.00;90.30;;;;;;5095364;28;20134;-75
2024/04/05 08:30:12;;;;;;;2.28;0.63;;;14.10;90.40;;;;;;5113290;28;20039;-75
2024/04/05 08:32:41;;;;;;;0.85;0.47;;;14.10;90.40;;;;;;5095204;28;20134;-75
2024/04/05 08:35:09;;;;;;;1.25;0.57;;;14.10;90.40;;;;;;5061497;28;20469;-75
2024/04/05 08:37:36;;;;;;;0.90;0.45;;;14.10;90.40;;;;;;5113509;28;20068;-75
2024/04/05 08:40:03;;;;;;;1.15;0.47;;;14.00;90.30;;;;;;5113227;28;20035;-75
2024/04/05 08:42:32;;;;;;;0.50;0.38;;;14.10;90.30;;;;;;5094445;28;20493;-75
2024/04/05 08:44:58;;;;;;;1.33;0.50;;;14.10;90.30;;;;;;5093560;28;20093;-75
2024/04/05 08:47:26;;;;;;;0.40;0.40;;;14.10;90.30;;;;;;5113001;28;20036;-74
2024/04/05 08:49:54;;;;;;;0.50;0.38;;;14.10;90.30;;;;;;5093245;28;20130;-75
2024/04/05 08:52:20;;;;;;;1.38;0.50;;;14.10;90.40;;;;;;5095287;28;20053;-75
2024/04/05 08:54:45;;;;;;;0.85;0.60;;;14.10;90.40;;;;;;5113743;28;20036;-77
2024/04/05 08:57:13;;;;;;;1.13;0.40;;;14.10;90.30;;;;;;5100298;28;20058;-78
2024/04/05 08:59:39;;;;;;;1.63;0.55;;;14.20;90.40;;;;;;5069925;28;20043;-77
2024/04/05 09:02:09;;;;;;;1.95;0.63;;;14.10;90.30;;;;;;5079868;28;20031;-79
2024/04/05 09:04:36;;;;;;;0.93;0.40;;;14.20;90.40;;;;;;5096543;28;20036;-76
2024/04/05 09:07:04;;;;;;;1.40;0.60;;;14.20;90.40;;;;;;5119460;28;20868;-76
2024/04/05 09:09:32;;;;;;;1.13;0.70;;;14.20;90.40;;;;;;5099196;28;20484;-76
2024/04/05 09:12:03;;;;;;;2.05;0.70;;;14.20;90.30;;;;;;5083225;28;20126;-77
2024/04/05 09:14:30;;;;;;;0.60;0.60;;;14.20;90.30;;;;;;5089432;28;20396;-77
2024/04/05 09:16:57;;;;;;;0.77;0.47;;;14.20;90.30;;;;;;5106286;28;20047;-77
2024/04/05 09:19:24;;;;;;;1.08;0.60;;;14.20;90.20;;;;;;5101730;28;20108;-76
2024/04/05 09:21:51;;;;;;;1.63;0.70;;;14.20;90.20;;;;;;5125493;28;20048;-75
2024/04/05 09:24:17;;;;;;;1.75;0.80;;;14.20;90.20;;;;;;5106098;28;20113;-75
2024/04/05 09:26:43;;;;;;;1.58;0.80;;;14.20;90.20;;;;;;5109348;28;20043;-75
2024/04/05 09:29:13;;;;;;;1.45;0.70;;;14.30;90.20;;;;;;5107087;28;20416;-75
2024/04/05 09:31:40;;;;;;;1.53;0.77;;;14.30;90.10;;;;;;5120419;28;20051;-78
2024/04/05 09:34:09;;;;;;;1.55;0.82;;;14.30;90.00;;;;;;5100511;28;20042;-77
2024/04/05 09:36:36;;;;;;;2.00;0.80;;;14.40;90.30;;;;;;5100453;28;20104;-77
2024/04/05 09:39:07;;;;;;;1.27;0.80;;;14.40;90.00;;;;;;5124272;28;20101;-77
2024/04/05 09:41:35;;;;;;;3.28;0.73;;;14.30;90.00;;;;;;5122582;28;20035;-77
2024/04/05 09:44:03;;;;;;;1.80;0.80;;;14.30;90.10;;;;;;5101100;28;20036;-76
2024/04/05 09:46:30;;;;;;;1.98;0.63;;;14.40;90.10;;;;;;5101702;28;20378;-77
2024/04/05 09:48:56;;;;;;;1.42;0.80;;;14.30;90.00;;;;;;5123237;28;20133;-77
2024/04/05 09:51:48;;;;;;;1.75;0.70;;;14.40;90.00;;;;;;5123773;28;20056;-78
2024/04/05 09:54:17;;;;;;;1.77;0.80;;;14.30;90.00;;;;;;5123107;28;20067;-77
2024/04/05 09:56:44;;;;;;;1.50;0.80;;;14.30;90.00;;;;;;5104502;28;20142;-75
2024/04/05 09:59:13;;;;;;;0.82;0.60;;;14.30;90.10;;;;;;5098213;28;20065;-76
2024/04/05 10:01:40;;;;;;;1.83;0.85;;;14.30;90.10;;;;;;5097659;28;20080;-76
2024/04/05 10:04:07;;;;;;;1.65;0.75;;;14.30;90.20;;;;;;5080434;28;20040;-75
2024/04/05 10:06:38;;;;;;;1.73;0.80;;;14.30;90.20;;;;;;5102484;28;20069;-77
2024/04/05 10:09:26;;;;;;;1.35;0.70;;;14.30;90.20;;;;;;5122079;28;20044;-77
2024/04/05 10:11:52;;;;;;;1.13;0.70;;;14.30;90.20;;;;;;5100400;28;20089;-77
2024/04/05 10:14:29;;;;;;;2.22;0.82;;;14.30;90.20;;;;;;5100336;28;20024;-76
2024/04/05 10:17:06;;;;;;;2.25;0.90;;;14.40;90.20;;;;;;5118184;28;20093;-76
2024/04/05 10:19:36;;;;;;;1.05;0.60;;;14.50;90.20;;;;;;5096102;28;20036;-77
2024/04/05 10:22:08;;;;;;;0.82;0.60;;;14.60;90.20;;;;;;5081099;28;20504;-77
2024/04/05 10:24:35;;;;;;;1.38;0.73;;;14.60;90.10;;;;;;5080859;28;20038;-77
2024/04/05 10:27:02;;;;;;;1.02;0.70;;;14.70;90.00;;;;;;5115699;28;20422;-77
2024/04/05 10:29:28;;;;;;;0.90;0.60;;;14.90;89.90;;;;;;5081635;28;20046;-76
2024/04/05 10:32:03;;;;;;;2.15;0.88;;;15.00;89.60;;;;;;5081759;28;20043;-78
2024/04/05 10:34:31;;;;;;;0.98;0.60;;;15.10;89.40;;;;;;5097185;28;20051;-77
2024/04/05 10:36:58;;;;;;;1.02;0.70;;;15.10;89.20;;;;;;5082136;28;20483;-76
2024/04/05 10:39:24;;;;;;;1.98;0.80;;;15.10;89.20;;;;;;5117500;28;20088;-76
2024/04/05 10:41:50;;;;;;;1.48;0.73;;;15.10;89.30;;;;;;5115110;28;20126;-76
2024/04/05 10:44:18;;;;;;;0.77;0.65;;;15.10;89.30;;;;;;5116434;28;20039;-77
2024/04/05 10:46:48;;;;;;;1.10;0.80;;;15.10;89.40;;;;;;5067074;28;20051;-76
2024/04/05 10:49:15;;;;;;;1.02;0.77;;;15.30;89.40;;;;;;5085569;28;20035;-77
2024/04/05 10:51:44;;;;;;;2.38;1.00;;;15.40;89.30;;;;;;5065909;28;20047;-77
2024/04/05 10:54:11;;;;;;;1.38;0.82;;;15.50;89.10;;;;;;5099279;28;20054;-76
2024/04/05 10:56:41;;;;;;;1.52;0.80;;;15.50;88.90;;;;;;5116971;28;20044;-78
2024/04/05 10:59:07;;;;;;;1.33;0.70;;;15.70;88.80;;;;;;5082283;28;20125;-78
2024/04/05 11:01:35;;;;;;;1.95;1.00;;;15.70;88.60;;;;;;5101740;28;20035;-78
2024/04/05 11:04:03;;;;;;;1.10;0.80;;;15.70;88.50;;;;;;5086881;28;20142;-77
2024/04/05 11:06:32;;;;;;;0.68;0.60;;;15.70;88.50;;;;;;5121078;28;20044;-78
2024/04/05 11:08:59;;;;;;;0.93;0.73;;;15.70;88.50;;;;;;5067392;28;20134;-77
2024/04/05 11:11:26;;;;;;;1.40;0.80;;;15.60;89.10;;;;;;5114819;28;20044;-78
2024/04/05 11:14:09;;;;;;;0.98;0.70;;;15.70;88.50;;;;;;5065550;28;20038;-79
2024/04/05 11:16:37;;;;;;;1.13;0.70;;;15.70;88.50;;;;;;5068173;28;20092;-79
2024/04/05 11:19:04;;;;;;;0.90;0.65;;;15.80;88.60;;;;;;5080832;28;20048;-79
2024/04/05 11:21:30;;;;;;;0.80;0.70;;;15.80;88.60;;;;;;5099809;28;20046;-79
2024/04/05 11:23:56;;;;;;;2.10;0.80;;;16.00;88.60;;;;;;5100367;28;20099;-78
2024/04/05 11:26:32;;;;;;;2.17;1.00;;;15.80;88.30;;;;;;5081683;28;20047;-77
2024/04/05 11:29:00;;;;;;;1.02;0.75;;;15.90;88.30;;;;;;5082890;28;20044;-78
2024/04/05 11:31:27;;;;;;;1.35;1.10;;;15.90;88.20;;;;;;5123963;28;20039;-80
2024/04/05 11:33:53;;;;;;;1.65;0.80;;;16.00;88.20;;;;;;5121855;28;20079;-78
2024/04/05 11:36:20;;;;;;;0.80;0.70;;;16.00;88.10;;;;;;5111435;28;20054;-78
2024/04/05 11:38:51;;;;;;;0.75;0.75;;;16.10;88.10;;;;;;5087874;28;20109;-79
2024/04/05 11:41:18;;;;;;;1.42;0.73;;;16.10;87.90;;;;;;5069034;28;20035;-79
2024/04/05 11:43:45;;;;;;;1.38;0.95;;;16.10;87.80;;;;;;5059331;28;20509;-81
2024/04/05 11:46:11;;;;;;;1.48;0.80;;;16.10;87.70;;;;;;5036756;28;20033;-80
2024/04/05 11:48:37;;;;;;;1.90;0.80;;;16.20;87.60;;;;;;5038326;28;20108;-81
2024/04/05 11:51:05;;;;;;;0.82;0.63;;;16.20;87.50;;;;;;5021082;28;20041;-81
2024/04/05 11:53:33;;;;;;;0.65;0.57;;;16.10;87.50;;;;;;5038233;28;20068;-80
2024/04/05 11:55:59;;;;;;;2.20;0.98;;;16.10;87.60;;;;;;4995253;28;20038;-80
2024/04/05 11:58:24;;;;;;;0.82;0.55;;;16.10;87.70;;;;;;4998324;28;20476;-81
2024/04/05 12:00:51;;;;;;;0.70;0.70;;;16.00;87.80;;;;;;4996271;28;20042;-79
2024/04/05 12:03:18;;;;;;;1.02;0.65;;;16.00;87.80;;;;;;4990399;28;20041;-77
2024/04/05 12:05:45;;;;;;;0.75;0.60;;;16.00;87.80;;;;;;5012308;28;20038;-79
2024/04/05 12:08:12;;;;;;;1.95;0.63;;;16.00;87.80;;;;;;5011403;28;20073;-79
2024/04/05 12:10:38;;;;;;;0.93;0.70;;;16.00;87.80;;;;;;5011596;28;20945;-79
2024/04/05 12:13:05;;;;;;;0.88;0.63;;;16.00;87.80;;;;;;5011113;28;20064;-80
2024/04/05 12:15:31;;;;;;;2.65;0.70;;;16.00;87.70;;;;;;5044143;28;20123;-80
2024/04/05 12:18:05;;;;;;;0.70;0.60;;;15.90;87.70;;;;;;5034195;28;20049;-79
2024/04/05 12:20:31;;;;;;;2.67;0.88;;;15.90;87.80;;;;;;5017386;28;20103;-78
2024/04/05 12:22:57;;;;;;;1.45;0.60;;;15.90;87.80;;;;;;5051010;28;20045;-78
2024/04/05 12:25:46;;;;;;;1.20;0.77;;;15.80;87.80;;;;;;5034573;28;20051;-82
2024/04/05 12:28:11;;;;;;;1.30;0.70;;;15.80;88.00;;;;;;5015309;28;20041;-81
2024/04/05 12:30:41;;;;;;;1.23;0.60;;;15.80;88.20;;;;;;5031819;28;20534;-82
2024/04/05 12:33:12;;;;;;;0.68;0.52;;;15.70;88.20;;;;;;5041455;28;20118;-79
2024/04/05 12:35:38;;;;;;;1.00;0.50;;;15.70;88.20;;;;;;5095493;28;20070;-79
2024/04/05 12:38:06;;;;;;;1.00;0.73;;;15.80;88.20;;;;;;5033254;28;20486;-80
2024/04/05 12:40:58;;;;;;;1.00;0.70;;;15.80;88.20;;;;;;5033779;28;20037;-79
2024/04/05 12:43:24;;;;;;;0.60;0.57;;;15.80;88.10;;;;;;5017308;28;20438;-79
2024/04/05 12:45:59;;;;;;;1.70;0.80;;;15.80;88.00;;;;;;5033628;28;20045;-80